createdAt,value
2023-04-20T00:00:30.613Z,98584.97
2023-04-20T00:03:35.367Z,98587.47
2023-04-20T00:06:31.889Z,98580.47
2023-04-20T00:09:25.893Z,98577.31
2023-04-20T00:12:18.350Z,98578.81
2023-04-20T00:15:13.470Z,98580.31
2023-04-20T00:17:59.431Z,98580.13
2023-04-20T00:20:54.554Z,98575.81
2023-04-20T00:23:52.122Z,98577.44
2023-04-20T00:26:39.010Z,98575.06
2023-04-20T00:29:20.282Z,98567.72
2023-04-20T00:32:06.312Z,98563.00
2023-04-20T00:34:42.316Z,98581.16
2023-04-20T00:37:27.203Z,98575.78
2023-04-20T00:40:05.312Z,98565.84
2023-04-20T00:45:40.852Z,98575.06
2023-04-20T00:48:29.008Z,98571.84
2023-04-20T00:51:18.623Z,98565.47
2023-04-20T00:54:07.544Z,98553.03
2023-04-20T00:56:42.800Z,98554.88
2023-04-20T01:02:19.223Z,98563.25
2023-04-20T01:05:06.229Z,98557.88
2023-04-20T01:07:51.194Z,98566.28
2023-04-20T01:10:28.546Z,98564.25
2023-04-20T01:13:02.490Z,98558.84
2023-04-20T01:15:38.320Z,98552.72
2023-04-20T01:18:23.968Z,98547.56
2023-04-20T01:21:16.801Z,98552.88
2023-04-20T01:24:09.900Z,98552.41
2023-04-20T01:30:13.587Z,98550.00
2023-04-20T01:33:20.111Z,98547.59
2023-04-20T01:36:16.709Z,98552.13
2023-04-20T01:39:11.304Z,98541.03
2023-04-20T01:42:08.887Z,98548.56
2023-04-20T01:45:03.657Z,98552.19
2023-04-20T01:47:57.294Z,98546.63
2023-04-20T01:50:54.090Z,98550.88
2023-04-20T01:53:43.836Z,98560.09
2023-04-20T01:56:56.669Z,98550.34
2023-04-20T01:59:50.463Z,98561.00
2023-04-20T02:02:40.358Z,98552.59
2023-04-20T02:05:35.237Z,98554.75
2023-04-20T02:08:28.383Z,98570.50
2023-04-20T02:11:23.566Z,98565.81
2023-04-20T02:14:15.166Z,98564.28
2023-04-20T02:17:07.807Z,98558.91
2023-04-20T02:20:15.806Z,98556.22
2023-04-20T02:23:07.512Z,98562.06
2023-04-20T02:26:05.139Z,98562.38
2023-04-20T02:29:10.929Z,98557.81
2023-04-20T02:32:06.312Z,98560.59
2023-04-20T02:35:01.084Z,98543.09
2023-04-20T02:37:57.316Z,98551.72
2023-04-20T02:40:49.289Z,98542.22
2023-04-20T02:43:41.644Z,98556.63
2023-04-20T02:46:36.143Z,98554.22
2023-04-20T02:49:30.259Z,98551.88
2023-04-20T02:52:22.241Z,98566.94
2023-04-20T02:55:03.595Z,98562.22
2023-04-20T02:57:56.644Z,98566.75
2023-04-20T03:00:48.440Z,98572.81
2023-04-20T03:03:51.069Z,98562.88
2023-04-20T03:06:45.066Z,98562.22
2023-04-20T03:09:42.129Z,98564.25
2023-04-20T03:12:35.901Z,98557.09
2023-04-20T03:15:38.678Z,98571.69
2023-04-20T03:18:32.776Z,98573.91
2023-04-20T03:21:25.263Z,98571.84
2023-04-20T03:24:31.296Z,98567.78
2023-04-20T03:27:38.561Z,98576.94
2023-04-20T03:30:35.146Z,98583.16
2023-04-20T03:33:29.011Z,98568.75
2023-04-20T03:36:31.651Z,98577.13
2023-04-20T03:39:28.007Z,98582.50
2023-04-20T03:42:21.417Z,98581.28
2023-04-20T03:45:10.445Z,98579.53
2023-04-20T03:48:09.222Z,98577.06
2023-04-20T03:51:01.787Z,98574.38
2023-04-20T03:56:55.089Z,98587.03
2023-04-20T03:59:49.240Z,98583.63
2023-04-20T04:03:02.431Z,98587.81
2023-04-20T04:05:58.542Z,98582.78
2023-04-20T04:08:51.322Z,98583.38
2023-04-20T04:11:46.045Z,98594.91
2023-04-20T04:14:37.740Z,98572.81
2023-04-20T04:17:33.137Z,98564.16
2023-04-20T04:20:29.384Z,98589.88
2023-04-20T04:23:25.977Z,98591.09
2023-04-20T04:26:19.411Z,98590.72
2023-04-20T04:29:12.225Z,98585.59
2023-04-20T04:32:13.879Z,98581.44
2023-04-20T04:35:06.832Z,98597.97
2023-04-20T04:38:04.713Z,98592.03
2023-04-20T04:40:58.397Z,98600.56
2023-04-20T04:43:53.874Z,98598.66
2023-04-20T04:46:50.672Z,98600.06
2023-04-20T04:49:48.955Z,98599.06
2023-04-20T04:52:43.492Z,98606.03
2023-04-20T04:55:38.296Z,98605.47
2023-04-20T04:58:33.603Z,98610.25
2023-04-20T05:01:26.897Z,98602.97
2023-04-20T05:04:22.652Z,98603.34
2023-04-20T05:07:16.659Z,98613.38
2023-04-20T05:10:11.673Z,98626.84
2023-04-20T05:13:07.734Z,98624.63
2023-04-20T05:16:01.548Z,98621.47
2023-04-20T05:18:54.034Z,98608.09
2023-04-20T05:21:44.886Z,98621.47
2023-04-20T05:24:36.920Z,98621.59
2023-04-20T05:27:33.730Z,98617.22
2023-04-20T05:30:41.350Z,98598.53
2023-04-20T05:33:37.176Z,98626.88
2023-04-20T05:36:41.617Z,98609.59
2023-04-20T05:39:38.153Z,98620.56
2023-04-20T05:42:32.330Z,98624.38
2023-04-20T05:45:27.345Z,98633.53
2023-04-20T05:48:22.415Z,98632.69
2023-04-20T05:51:14.025Z,98639.94
2023-04-20T05:54:17.767Z,98617.91
2023-04-20T05:57:13.362Z,98633.88
2023-04-20T06:00:07.757Z,98623.88
2023-04-20T06:02:59.218Z,98642.91
2023-04-20T06:05:54.524Z,98642.47
2023-04-20T06:08:49.437Z,98641.31
2023-04-20T06:11:41.391Z,98649.75
2023-04-20T06:17:48.266Z,98655.91
2023-04-20T06:20:43.086Z,98653.44
2023-04-20T06:23:43.174Z,98660.38
2023-04-20T06:26:36.548Z,98657.75
2023-04-20T06:29:39.874Z,98653.91
2023-04-20T06:32:28.695Z,98621.53
2023-04-20T06:35:22.859Z,98654.81
2023-04-20T06:38:19.389Z,98643.16
2023-04-20T06:41:14.404Z,98656.53
2023-04-20T06:44:06.719Z,98663.13
2023-04-20T06:47:04.109Z,98666.50
2023-04-20T06:50:11.162Z,98666.75
2023-04-20T06:53:06.573Z,98656.28
2023-04-20T06:56:06.192Z,98658.16
2023-04-20T06:59:00.138Z,98648.69
2023-04-20T07:01:52.359Z,98648.38
2023-04-20T07:04:55.022Z,98660.56
2023-04-20T07:07:47.204Z,98649.34
2023-04-20T07:10:44.190Z,98651.66
2023-04-20T07:13:34.126Z,98650.38
2023-04-20T07:16:32.772Z,98638.09
2023-04-20T07:19:24.519Z,98659.09
2023-04-20T07:22:20.895Z,98660.03
2023-04-20T07:25:37.372Z,98667.22
2023-04-20T07:28:32.893Z,98675.38
2023-04-20T07:31:23.349Z,98662.53
2023-04-20T07:34:11.925Z,98672.44
2023-04-20T07:37:15.323Z,98655.91
2023-04-20T07:40:20.109Z,98665.69
2023-04-20T07:43:23.507Z,98622.75
2023-04-20T07:46:13.057Z,98662.81
2023-04-20T07:49:08.590Z,98657.88
2023-04-20T07:55:15.116Z,98646.25
2023-04-20T07:58:09.677Z,98642.03
2023-04-20T08:01:05.398Z,98603.91
2023-04-20T08:03:58.567Z,98650.09
2023-04-20T08:07:00.785Z,98645.88
2023-04-20T08:09:53.874Z,98655.16
2023-04-20T08:12:45.609Z,98650.78
2023-04-20T08:15:40.378Z,98661.44
2023-04-20T08:18:31.684Z,98662.69
2023-04-20T08:21:26.229Z,98668.19
2023-04-20T08:24:28.390Z,98662.88
2023-04-20T08:27:19.571Z,98666.59
2023-04-20T08:30:19.506Z,98671.03
2023-04-20T08:33:13.876Z,98665.56
2023-04-20T08:36:13.663Z,98663.84
2023-04-20T08:39:43.573Z,98662.63
2023-04-20T08:42:43.753Z,98672.72
2023-04-20T08:45:10.792Z,98669.22
2023-04-20T17:40:31.409Z,98594.81
2023-04-20T17:42:58.398Z,98601.09
2023-04-20T17:45:49.172Z,98602.00
2023-04-20T17:48:48.988Z,98593.03
2023-04-20T17:51:57.374Z,98592.00
2023-04-20T17:55:02.567Z,98591.25
2023-04-20T17:57:57.351Z,98596.06
2023-04-20T18:00:48.206Z,98602.16
2023-04-20T18:03:46.450Z,98580.56
2023-04-20T18:06:41.247Z,98587.50
2023-04-20T18:12:39.170Z,98593.22
2023-04-20T18:15:26.067Z,98596.78
2023-04-20T18:17:53.005Z,98593.06
2023-04-20T18:20:20.085Z,98602.66
2023-04-20T18:22:49.382Z,98604.13
2023-04-20T18:25:20.699Z,98602.88
2023-04-20T18:27:47.653Z,98603.31
2023-04-20T18:30:15.217Z,98610.19
2023-04-20T18:32:42.731Z,98608.09
2023-04-20T18:35:11.423Z,98598.53
2023-04-20T18:37:38.634Z,98593.31
2023-04-20T18:40:09.944Z,98603.72
2023-04-20T18:43:11.134Z,98602.28
2023-04-20T18:45:38.065Z,98610.19
2023-04-20T18:48:05.418Z,98606.22
2023-04-20T18:50:32.398Z,98604.53
2023-04-20T18:53:00.835Z,98601.81
2023-04-20T18:55:30.653Z,98614.09
2023-04-20T18:58:00.714Z,98605.97
2023-04-20T19:00:29.545Z,98601.53
2023-04-20T19:02:58.552Z,98604.22
2023-04-20T19:05:27.825Z,98614.78
2023-04-20T19:07:56.662Z,98618.06
2023-04-20T19:10:23.755Z,98623.41
2023-04-20T19:12:50.790Z,98624.81
2023-04-20T19:15:26.992Z,98622.00
2023-04-20T19:17:56.157Z,98613.66
2023-04-20T19:20:26.518Z,98616.75
2023-04-20T19:22:53.440Z,98618.94
2023-04-20T19:25:20.722Z,98612.56
2023-04-20T19:27:47.695Z,98617.53
2023-04-20T19:30:14.752Z,98610.28
2023-04-20T19:32:41.729Z,98612.59
2023-04-20T19:35:08.770Z,98610.41
2023-04-20T19:37:35.780Z,98607.75
2023-04-20T19:40:02.804Z,98608.09
2023-04-20T19:42:29.767Z,98612.13
2023-04-20T19:44:56.778Z,98607.03
2023-04-20T19:47:23.919Z,98606.59
2023-04-20T19:49:51.032Z,98613.22
2023-04-20T19:52:17.984Z,98613.53
2023-04-20T19:54:44.874Z,98609.56
2023-04-20T19:57:12.012Z,98605.59
2023-04-20T19:59:40.329Z,98602.34
2023-04-20T20:02:07.780Z,98606.19
2023-04-20T20:04:38.036Z,98599.22
2023-04-20T20:07:05.180Z,98603.94
2023-04-20T20:12:51.192Z,98594.50
2023-04-20T20:15:18.120Z,98601.81
2023-04-20T20:17:46.783Z,98598.16
2023-04-20T20:20:15.574Z,98599.25
2023-04-20T20:22:48.372Z,98591.16
2023-04-20T20:25:16.205Z,98590.34
2023-04-20T20:27:43.179Z,98586.44
2023-04-20T20:30:10.860Z,98588.56
2023-04-20T20:32:37.826Z,98585.72
2023-04-20T20:35:05.670Z,98589.78
2023-04-20T20:37:34.995Z,98595.06
2023-04-20T20:40:07.098Z,98596.31
2023-04-20T20:42:34.415Z,98608.22
2023-04-20T20:45:01.381Z,98586.06
2023-04-20T20:47:28.375Z,98596.03
2023-04-20T20:49:55.273Z,98595.88
2023-04-20T20:52:22.377Z,98597.31
2023-04-20T20:54:49.294Z,98599.66
2023-04-20T20:57:16.166Z,98599.41
2023-04-20T20:59:43.255Z,98553.88
2023-04-20T21:02:10.447Z,98599.72
2023-04-20T21:04:37.455Z,98598.44
2023-04-20T21:07:04.372Z,98589.13
2023-04-20T21:09:31.335Z,98608.28
2023-04-20T21:12:01.254Z,98602.63
2023-04-20T21:14:28.313Z,98602.00
2023-04-20T21:16:55.350Z,98605.44
2023-04-20T21:19:22.449Z,98600.63
2023-04-20T21:21:49.387Z,98604.09
2023-04-20T21:24:16.483Z,98606.72
2023-04-20T21:26:43.401Z,98612.47
2023-04-20T21:29:10.356Z,98594.66
2023-04-20T21:31:37.304Z,98602.09
2023-04-20T21:34:04.276Z,98601.63
2023-04-20T21:36:31.149Z,98607.44
2023-04-20T21:38:58.064Z,98600.72
2023-04-20T21:41:26.880Z,98613.94
2023-04-20T21:43:53.806Z,98595.94
2023-04-20T21:46:20.785Z,98597.91
2023-04-20T21:48:47.947Z,98603.88
2023-04-20T21:51:18.853Z,98604.78
2023-04-20T21:53:46.127Z,98586.66
2023-04-20T21:56:15.068Z,98602.75
2023-04-20T21:58:42.128Z,98603.66
2023-04-20T22:01:09.103Z,98597.72
2023-04-20T22:03:37.547Z,98556.09
2023-04-20T22:06:05.267Z,98604.13
2023-04-20T22:08:32.296Z,98598.81
2023-04-20T22:10:59.350Z,98600.56
2023-04-20T22:13:26.480Z,98603.53
2023-04-20T22:15:53.533Z,98604.63
2023-04-20T22:18:20.572Z,98602.63
2023-04-20T22:20:47.631Z,98607.09
2023-04-20T22:23:14.593Z,98596.88
2023-04-20T22:25:43.096Z,98596.56
2023-04-20T22:28:11.444Z,98596.09
2023-04-20T22:30:38.404Z,98602.19
2023-04-20T22:33:05.456Z,98602.94
2023-04-20T22:35:32.350Z,98599.56
2023-04-20T22:37:59.637Z,98608.00
2023-04-20T22:40:27.288Z,98602.13
2023-04-20T22:42:54.241Z,98601.88
2023-04-20T22:45:22.144Z,98552.56
2023-04-20T22:47:49.113Z,98601.91
2023-04-20T22:50:16.395Z,98616.38
2023-04-20T22:52:43.438Z,98609.47
2023-04-20T22:55:12.032Z,98608.16
2023-04-20T22:57:39.388Z,98613.72
2023-04-20T23:00:10.713Z,98606.50
2023-04-20T23:02:38.072Z,98604.00
2023-04-20T23:05:06.127Z,98601.47
2023-04-20T23:07:33.608Z,98597.78
2023-04-20T23:10:00.709Z,98600.34
2023-04-20T23:12:29.691Z,98602.50
2023-04-20T23:14:56.915Z,98610.25
2023-04-20T23:17:23.891Z,98615.31
2023-04-20T23:19:51.207Z,98606.78
2023-04-20T23:22:18.430Z,98608.63
2023-04-20T23:24:45.288Z,98602.75
2023-04-20T23:27:12.244Z,98602.16
2023-04-20T23:29:39.103Z,98608.03
2023-04-20T23:32:06.253Z,98602.50
2023-04-20T23:34:33.210Z,98605.56
2023-04-20T23:37:00.124Z,98594.81
2023-04-20T23:39:27.040Z,98605.34
2023-04-20T23:41:53.926Z,98534.72
2023-04-20T23:44:20.979Z,98592.13
2023-04-20T23:46:47.866Z,98594.81
2023-04-20T23:49:14.724Z,98522.19
2023-04-20T23:51:42.270Z,98594.97
2023-04-20T23:54:09.183Z,98595.34
2023-04-20T23:56:36.025Z,98590.28
2023-04-20T23:59:02.982Z,98575.22
